sensor_id;sensor_type;location;lat;lon;timestamp;P1;durP1;ratioP1;P2;durP2;ratioP2
7879;SDS011;3985;49.366;2.738;2023-03-01T00:01:01;24.33;;;22.00;;
7879;SDS011;3985;49.366;2.738;2023-03-01T00:03:30;19.00;;;17.67;;
7879;SDS011;3985;49.366;2.738;2023-03-01T00:05:58;20.67;;;19.00;;
7879;SDS011;3985;49.366;2.738;2023-03-01T00:08:26;20.33;;;20.33;;
7879;SDS011;3985;49.366;2.738;2023-03-01T00:11:03;27.67;;;25.33;;
7879;SDS011;3985;49.366;2.738;2023-03-01T00:13:32;27.00;;;19.33;;
7879;SDS011;3985;49.366;2.738;2023-03-01T00:16:01;28.67;;;27.00;;
7879;SDS011;3985;49.366;2.738;2023-03-01T00:18:29;35.33;;;29.33;;
7879;SDS011;3985;49.366;2.738;2023-03-01T00:20:56;27.33;;;25.00;;
7879;SDS011;3985;49.366;2.738;2023-03-01T00:23:24;24.00;;;21.00;;
7879;SDS011;3985;49.366;2.738;2023-03-01T00:25:52;33.33;;;23.00;;
7879;SDS011;3985;49.366;2.738;2023-03-01T00:28:21;23.00;;;21.67;;
7879;SDS011;3985;49.366;2.738;2023-03-01T00:30:49;24.00;;;19.00;;
7879;SDS011;3985;49.366;2.738;2023-03-01T00:33:17;19.00;;;19.00;;
7879;SDS011;3985;49.366;2.738;2023-03-01T00:35:44;23.00;;;21.00;;
7879;SDS011;3985;49.366;2.738;2023-03-01T00:38:14;26.33;;;22.33;;
7879;SDS011;3985;49.366;2.738;2023-03-01T00:40:42;21.33;;;17.33;;
7879;SDS011;3985;49.366;2.738;2023-03-01T00:43:09;23.00;;;21.00;;
7879;SDS011;3985;49.366;2.738;2023-03-01T00:45:38;22.33;;;20.67;;
7879;SDS011;3985;49.366;2.738;2023-03-01T00:48:05;25.00;;;20.33;;
7879;SDS011;3985;49.366;2.738;2023-03-01T00:50:33;24.67;;;21.67;;
7879;SDS011;3985;49.366;2.738;2023-03-01T00:53:01;25.33;;;22.67;;
7879;SDS011;3985;49.366;2.738;2023-03-01T00:55:29;29.00;;;23.33;;
7879;SDS011;3985;49.366;2.738;2023-03-01T00:58:17;45.00;;;38.00;;
7879;SDS011;3985;49.366;2.738;2023-03-01T01:01:08;30.33;;;27.33;;
7879;SDS011;3985;49.366;2.738;2023-03-01T01:03:42;21.33;;;18.67;;
7879;SDS011;3985;49.366;2.738;2023-03-01T01:06:17;21.00;;;21.00;;
7879;SDS011;3985;49.366;2.738;2023-03-01T01:08:46;21.33;;;20.33;;
7879;SDS011;3985;49.366;2.738;2023-03-01T01:11:14;21.33;;;18.67;;
7879;SDS011;3985;49.366;2.738;2023-03-01T01:13:43;24.00;;;20.00;;
7879;SDS011;3985;49.366;2.738;2023-03-01T01:16:16;28.67;;;21.67;;
7879;SDS011;3985;49.366;2.738;2023-03-01T01:18:44;28.00;;;26.00;;
7879;SDS011;3985;49.366;2.738;2023-03-01T01:21:13;24.00;;;21.67;;
7879;SDS011;3985;49.366;2.738;2023-03-01T01:23:42;25.33;;;21.33;;
7879;SDS011;3985;49.366;2.738;2023-03-01T01:26:11;24.00;;;21.33;;
7879;SDS011;3985;49.366;2.738;2023-03-01T01:28:39;24.67;;;24.67;;
7879;SDS011;3985;49.366;2.738;2023-03-01T01:31:07;25.67;;;24.00;;
7879;SDS011;3985;49.366;2.738;2023-03-01T01:33:36;22.00;;;19.00;;
7879;SDS011;3985;49.366;2.738;2023-03-01T01:36:07;21.00;;;19.00;;
7879;SDS011;3985;49.366;2.738;2023-03-01T01:38:35;31.33;;;24.33;;
7879;SDS011;3985;49.366;2.738;2023-03-01T01:41:04;27.00;;;23.67;;
7879;SDS011;3985;49.366;2.738;2023-03-01T01:43:34;30.67;;;25.00;;
7879;SDS011;3985;49.366;2.738;2023-03-01T01:46:03;20.33;;;20.33;;
7879;SDS011;3985;49.366;2.738;2023-03-01T01:48:34;17.00;;;17.00;;
7879;SDS011;3985;49.366;2.738;2023-03-01T01:51:07;15.00;;;15.00;;
7879;SDS011;3985;49.366;2.738;2023-03-01T01:53:38;21.33;;;21.33;;
7879;SDS011;3985;49.366;2.738;2023-03-01T01:56:07;24.33;;;22.67;;
7879;SDS011;3985;49.366;2.738;2023-03-01T01:58:36;23.00;;;23.00;;
7879;SDS011;3985;49.366;2.738;2023-03-01T02:01:04;21.67;;;21.67;;
7879;SDS011;3985;49.366;2.738;2023-03-01T02:03:33;20.67;;;20.67;;
7879;SDS011;3985;49.366;2.738;2023-03-01T02:06:11;19.67;;;19.67;;
7879;SDS011;3985;49.366;2.738;2023-03-01T02:08:40;17.33;;;15.00;;
7879;SDS011;3985;49.366;2.738;2023-03-01T02:11:09;24.00;;;22.33;;
7879;SDS011;3985;49.366;2.738;2023-03-01T02:13:40;23.00;;;23.00;;
7879;SDS011;3985;49.366;2.738;2023-03-01T02:16:09;20.67;;;20.67;;
7879;SDS011;3985;49.366;2.738;2023-03-01T02:18:37;14.00;;;14.00;;
7879;SDS011;3985;49.366;2.738;2023-03-01T02:21:17;21.00;;;21.00;;
7879;SDS011;3985;49.366;2.738;2023-03-01T02:23:52;31.33;;;28.67;;
7879;SDS011;3985;49.366;2.738;2023-03-01T02:26:25;20.00;;;19.67;;
7879;SDS011;3985;49.366;2.738;2023-03-01T02:28:57;24.50;;;23.00;;
7879;SDS011;3985;49.366;2.738;2023-03-01T02:31:25;27.50;;;26.25;;
7879;SDS011;3985;49.366;2.738;2023-03-01T02:34:08;25.67;;;25.67;;
7879;SDS011;3985;49.366;2.738;2023-03-01T02:36:38;22.33;;;22.33;;
7879;SDS011;3985;49.366;2.738;2023-03-01T02:39:08;28.00;;;28.00;;
7879;SDS011;3985;49.366;2.738;2023-03-01T02:41:39;25.50;;;25.50;;
7879;SDS011;3985;49.366;2.738;2023-03-01T02:44:10;25.25;;;25.25;;
7879;SDS011;3985;49.366;2.738;2023-03-01T02:46:42;25.00;;;25.00;;
7879;SDS011;3985;49.366;2.738;2023-03-01T02:49:17;24.50;;;24.50;;
7879;SDS011;3985;49.366;2.738;2023-03-01T02:51:48;22.50;;;22.50;;
7879;SDS011;3985;49.366;2.738;2023-03-01T02:54:36;24.33;;;22.33;;
7879;SDS011;3985;49.366;2.738;2023-03-01T02:57:08;23.25;;;22.50;;
7879;SDS011;3985;49.366;2.738;2023-03-01T02:59:37;22.67;;;22.67;;
7879;SDS011;3985;49.366;2.738;2023-03-01T03:02:07;24.50;;;23.50;;
7879;SDS011;3985;49.366;2.738;2023-03-01T03:04:45;27.50;;;27.25;;
7879;SDS011;3985;49.366;2.738;2023-03-01T03:07:13;30.25;;;27.00;;
7879;SDS011;3985;49.366;2.738;2023-03-01T03:09:42;30.50;;;30.50;;
7879;SDS011;3985;49.366;2.738;2023-03-01T03:12:10;31.00;;;31.00;;
7879;SDS011;3985;49.366;2.738;2023-03-01T03:14:39;35.75;;;33.50;;
7879;SDS011;3985;49.366;2.738;2023-03-01T03:17:07;33.50;;;33.00;;
7879;SDS011;3985;49.366;2.738;2023-03-01T03:19:36;25.75;;;25.75;;
7879;SDS011;3985;49.366;2.738;2023-03-01T03:22:09;38.25;;;36.25;;
7879;SDS011;3985;49.366;2.738;2023-03-01T03:24:36;32.50;;;32.50;;
7879;SDS011;3985;49.366;2.738;2023-03-01T03:27:04;34.00;;;34.00;;
7879;SDS011;3985;49.366;2.738;2023-03-01T03:29:31;33.00;;;33.00;;
7879;SDS011;3985;49.366;2.738;2023-03-01T03:32:00;50.00;;;46.50;;
7879;SDS011;3985;49.366;2.738;2023-03-01T03:34:28;34.25;;;31.25;;
7879;SDS011;3985;49.366;2.738;2023-03-01T03:36:56;34.50;;;34.50;;
7879;SDS011;3985;49.366;2.738;2023-03-01T03:39:24;51.50;;;46.25;;
7879;SDS011;3985;49.366;2.738;2023-03-01T03:41:52;47.25;;;44.00;;
7879;SDS011;3985;49.366;2.738;2023-03-01T03:44:20;75.25;;;61.25;;
7879;SDS011;3985;49.366;2.738;2023-03-01T03:46:48;64.00;;;53.25;;
7879;SDS011;3985;49.366;2.738;2023-03-01T03:49:17;35.00;;;30.75;;
7879;SDS011;3985;49.366;2.738;2023-03-01T03:51:45;45.00;;;43.25;;
7879;SDS011;3985;49.366;2.738;2023-03-01T03:54:13;38.75;;;37.50;;
7879;SDS011;3985;49.366;2.738;2023-03-01T03:56:40;32.00;;;32.00;;
7879;SDS011;3985;49.366;2.738;2023-03-01T03:59:09;33.33;;;33.00;;
7879;SDS011;3985;49.366;2.738;2023-03-01T04:01:36;30.33;;;30.33;;
7879;SDS011;3985;49.366;2.738;2023-03-01T04:04:04;46.00;;;42.00;;
7879;SDS011;3985;49.366;2.738;2023-03-01T04:06:34;26.67;;;26.67;;
7879;SDS011;3985;49.366;2.738;2023-03-01T04:09:02;35.67;;;34.00;;
7879;SDS011;3985;49.366;2.738;2023-03-01T04:11:29;32.33;;;30.33;;
7879;SDS011;3985;49.366;2.738;2023-03-01T04:13:58;37.67;;;36.33;;
7879;SDS011;3985;49.366;2.738;2023-03-01T04:16:26;42.00;;;40.75;;
7879;SDS011;3985;49.366;2.738;2023-03-01T04:18:53;32.00;;;32.00;;
7879;SDS011;3985;49.366;2.738;2023-03-01T04:21:21;37.00;;;35.50;;
7879;SDS011;3985;49.366;2.738;2023-03-01T04:23:50;39.75;;;37.75;;
7879;SDS011;3985;49.366;2.738;2023-03-01T04:26:18;41.25;;;41.25;;
7879;SDS011;3985;49.366;2.738;2023-03-01T04:28:46;42.33;;;37.67;;
7879;SDS011;3985;49.366;2.738;2023-03-01T04:31:16;40.75;;;40.50;;
7879;SDS011;3985;49.366;2.738;2023-03-01T04:33:47;47.00;;;44.00;;
7879;SDS011;3985;49.366;2.738;2023-03-01T04:36:17;33.00;;;31.75;;
7879;SDS011;3985;49.366;2.738;2023-03-01T04:38:46;46.50;;;43.00;;
7879;SDS011;3985;49.366;2.738;2023-03-01T04:41:16;52.50;;;45.50;;
7879;SDS011;3985;49.366;2.738;2023-03-01T04:43:45;47.75;;;44.50;;
7879;SDS011;3985;49.366;2.738;2023-03-01T04:46:14;52.25;;;45.25;;
7879;SDS011;3985;49.366;2.738;2023-03-01T04:48:43;62.00;;;52.00;;
7879;SDS011;3985;49.366;2.738;2023-03-01T04:51:12;64.50;;;55.00;;
7879;SDS011;3985;49.366;2.738;2023-03-01T04:53:39;62.25;;;52.25;;
7879;SDS011;3985;49.366;2.738;2023-03-01T04:56:11;53.25;;;46.75;;
7879;SDS011;3985;49.366;2.738;2023-03-01T04:58:41;56.25;;;45.50;;
7879;SDS011;3985;49.366;2.738;2023-03-01T05:01:09;49.75;;;44.75;;
7879;SDS011;3985;49.366;2.738;2023-03-01T05:03:40;48.50;;;44.75;;
7879;SDS011;3985;49.366;2.738;2023-03-01T05:06:09;41.50;;;41.50;;
7879;SDS011;3985;49.366;2.738;2023-03-01T05:08:37;35.75;;;35.75;;
7879;SDS011;3985;49.366;2.738;2023-03-01T05:11:05;36.25;;;36.25;;
7879;SDS011;3985;49.366;2.738;2023-03-01T05:13:35;45.75;;;44.25;;
7879;SDS011;3985;49.366;2.738;2023-03-01T05:16:08;40.75;;;40.75;;
7879;SDS011;3985;49.366;2.738;2023-03-01T05:18:36;38.25;;;37.50;;
7879;SDS011;3985;49.366;2.738;2023-03-01T05:21:04;43.00;;;42.25;;
7879;SDS011;3985;49.366;2.738;2023-03-01T05:23:33;35.50;;;34.75;;
7879;SDS011;3985;49.366;2.738;2023-03-01T05:26:02;39.75;;;39.25;;
7879;SDS011;3985;49.366;2.738;2023-03-01T05:28:31;37.75;;;36.50;;
7879;SDS011;3985;49.366;2.738;2023-03-01T05:31:01;38.00;;;38.00;;
7879;SDS011;3985;49.366;2.738;2023-03-01T05:33:35;50.00;;;44.75;;
7879;SDS011;3985;49.366;2.738;2023-03-01T05:36:04;47.25;;;43.00;;
7879;SDS011;3985;49.366;2.738;2023-03-01T05:38:32;37.50;;;35.75;;
7879;SDS011;3985;49.366;2.738;2023-03-01T05:41:01;39.50;;;38.00;;
7879;SDS011;3985;49.366;2.738;2023-03-01T05:43:31;40.50;;;39.25;;
7879;SDS011;3985;49.366;2.738;2023-03-01T05:45:59;43.75;;;42.50;;
7879;SDS011;3985;49.366;2.738;2023-03-01T05:48:29;53.50;;;49.25;;
7879;SDS011;3985;49.366;2.738;2023-03-01T05:51:02;46.50;;;43.50;;
7879;SDS011;3985;49.366;2.738;2023-03-01T05:53:31;55.50;;;49.00;;
7879;SDS011;3985;49.366;2.738;2023-03-01T05:55:58;41.50;;;41.50;;
7879;SDS011;3985;49.366;2.738;2023-03-01T05:58:29;51.75;;;46.00;;
7879;SDS011;3985;49.366;2.738;2023-03-01T06:01:00;53.75;;;47.50;;
7879;SDS011;3985;49.366;2.738;2023-03-01T06:03:27;72.25;;;58.75;;
7879;SDS011;3985;49.366;2.738;2023-03-01T06:05:55;51.50;;;45.00;;
7879;SDS011;3985;49.366;2.738;2023-03-01T06:08:27;43.00;;;42.00;;
7879;SDS011;3985;49.366;2.738;2023-03-01T06:10:55;51.00;;;45.00;;
7879;SDS011;3985;49.366;2.738;2023-03-01T06:13:22;50.00;;;44.75;;
7879;SDS011;3985;49.366;2.738;2023-03-01T06:15:50;63.75;;;54.00;;
7879;SDS011;3985;49.366;2.738;2023-03-01T06:18:18;69.25;;;58.00;;
7879;SDS011;3985;49.366;2.738;2023-03-01T06:20:45;74.75;;;61.00;;
7879;SDS011;3985;49.366;2.738;2023-03-01T06:23:22;43.00;;;41.75;;
7879;SDS011;3985;49.366;2.738;2023-03-01T06:25:51;46.75;;;44.75;;
7879;SDS011;3985;49.366;2.738;2023-03-01T06:28:19;49.25;;;43.75;;
7879;SDS011;3985;49.366;2.738;2023-03-01T06:30:47;40.75;;;39.50;;
7879;SDS011;3985;49.366;2.738;2023-03-01T06:33:17;64.00;;;54.25;;
7879;SDS011;3985;49.366;2.738;2023-03-01T06:35:49;29.50;;;26.50;;
7879;SDS011;3985;49.366;2.738;2023-03-01T06:38:16;41.00;;;40.25;;
7879;SDS011;3985;49.366;2.738;2023-03-01T06:40:44;56.75;;;48.50;;
7879;SDS011;3985;49.366;2.738;2023-03-01T06:43:15;41.25;;;37.25;;
7879;SDS011;3985;49.366;2.738;2023-03-01T06:45:44;44.75;;;43.25;;
7879;SDS011;3985;49.366;2.738;2023-03-01T06:48:12;48.50;;;44.75;;
7879;SDS011;3985;49.366;2.738;2023-03-01T06:50:39;41.75;;;41.00;;
7879;SDS011;3985;49.366;2.738;2023-03-01T06:53:06;47.50;;;43.75;;
7879;SDS011;3985;49.366;2.738;2023-03-01T06:55:34;42.75;;;41.50;;
7879;SDS011;3985;49.366;2.738;2023-03-01T06:58:02;35.50;;;35.50;;
7879;SDS011;3985;49.366;2.738;2023-03-01T07:00:31;48.50;;;45.00;;
7879;SDS011;3985;49.366;2.738;2023-03-01T07:02:59;45.75;;;43.75;;
7879;SDS011;3985;49.366;2.738;2023-03-01T07:05:28;49.75;;;45.75;;
7879;SDS011;3985;49.366;2.738;2023-03-01T07:07:55;57.25;;;45.25;;
7879;SDS011;3985;49.366;2.738;2023-03-01T07:10:23;66.50;;;55.75;;
7879;SDS011;3985;49.366;2.738;2023-03-01T07:12:54;68.50;;;57.75;;
7879;SDS011;3985;49.366;2.738;2023-03-01T07:15:24;67.75;;;57.25;;
7879;SDS011;3985;49.366;2.738;2023-03-01T07:17:54;72.00;;;57.25;;
7879;SDS011;3985;49.366;2.738;2023-03-01T07:20:23;54.25;;;47.75;;
7879;SDS011;3985;49.366;2.738;2023-03-01T07:22:50;65.25;;;53.25;;
7879;SDS011;3985;49.366;2.738;2023-03-01T07:25:18;51.75;;;47.75;;
7879;SDS011;3985;49.366;2.738;2023-03-01T07:27:48;47.75;;;46.00;;
7879;SDS011;3985;49.366;2.738;2023-03-01T07:30:16;55.75;;;49.75;;
7879;SDS011;3985;49.366;2.738;2023-03-01T07:32:44;57.25;;;50.75;;
7879;SDS011;3985;49.366;2.738;2023-03-01T07:35:13;60.75;;;53.25;;
7879;SDS011;3985;49.366;2.738;2023-03-01T07:37:41;54.00;;;48.25;;
7879;SDS011;3985;49.366;2.738;2023-03-01T07:40:10;51.00;;;47.00;;
7879;SDS011;3985;49.366;2.738;2023-03-01T07:42:39;53.50;;;48.00;;
7879;SDS011;3985;49.366;2.738;2023-03-01T07:45:06;49.50;;;46.00;;
7879;SDS011;3985;49.366;2.738;2023-03-01T07:47:34;63.00;;;52.00;;
7879;SDS011;3985;49.366;2.738;2023-03-01T07:50:02;60.00;;;50.75;;
7879;SDS011;3985;49.366;2.738;2023-03-01T07:52:33;43.50;;;43.00;;
7879;SDS011;3985;49.366;2.738;2023-03-01T07:55:00;63.50;;;55.00;;
7879;SDS011;3985;49.366;2.738;2023-03-01T07:57:27;60.50;;;52.00;;
7879;SDS011;3985;49.366;2.738;2023-03-01T07:59:55;52.75;;;47.75;;
7879;SDS011;3985;49.366;2.738;2023-03-01T08:02:22;52.25;;;47.50;;
7879;SDS011;3985;49.366;2.738;2023-03-01T08:04:50;48.25;;;45.75;;
7879;SDS011;3985;49.366;2.738;2023-03-01T08:07:17;55.33;;;48.33;;
7879;SDS011;3985;49.366;2.738;2023-03-01T08:09:47;48.75;;;43.25;;
7879;SDS011;3985;49.366;2.738;2023-03-01T08:12:15;45.50;;;43.75;;
7879;SDS011;3985;49.366;2.738;2023-03-01T08:14:43;48.67;;;43.67;;
7879;SDS011;3985;49.366;2.738;2023-03-01T08:17:13;58.50;;;51.25;;
7879;SDS011;3985;49.366;2.738;2023-03-01T08:19:40;50.33;;;44.00;;
7879;SDS011;3985;49.366;2.738;2023-03-01T08:22:08;51.00;;;43.00;;
7879;SDS011;3985;49.366;2.738;2023-03-01T08:24:36;59.00;;;48.33;;
7879;SDS011;3985;49.366;2.738;2023-03-01T08:27:05;48.00;;;44.00;;
7879;SDS011;3985;49.366;2.738;2023-03-01T08:29:33;51.67;;;44.00;;
7879;SDS011;3985;49.366;2.738;2023-03-01T08:32:00;41.67;;;41.67;;
7879;SDS011;3985;49.366;2.738;2023-03-01T08:34:28;56.00;;;46.67;;
7879;SDS011;3985;49.366;2.738;2023-03-01T08:36:56;41.33;;;39.67;;
7879;SDS011;3985;49.366;2.738;2023-03-01T08:39:23;49.00;;;43.67;;
7879;SDS011;3985;49.366;2.738;2023-03-01T08:41:51;55.67;;;45.33;;
7879;SDS011;3985;49.366;2.738;2023-03-01T08:44:20;47.67;;;42.33;;
7879;SDS011;3985;49.366;2.738;2023-03-01T08:46:47;53.67;;;47.67;;
7879;SDS011;3985;49.366;2.738;2023-03-01T08:49:17;47.00;;;42.00;;
7879;SDS011;3985;49.366;2.738;2023-03-01T08:51:45;52.67;;;44.67;;
7879;SDS011;3985;49.366;2.738;2023-03-01T08:54:14;49.00;;;46.00;;
7879;SDS011;3985;49.366;2.738;2023-03-01T08:56:43;39.00;;;39.00;;
7879;SDS011;3985;49.366;2.738;2023-03-01T08:59:12;48.00;;;40.00;;
7879;SDS011;3985;49.366;2.738;2023-03-01T09:01:42;50.00;;;42.33;;
7879;SDS011;3985;49.366;2.738;2023-03-01T09:04:10;46.00;;;42.67;;
7879;SDS011;3985;49.366;2.738;2023-03-01T09:06:37;46.33;;;40.67;;
7879;SDS011;3985;49.366;2.738;2023-03-01T09:09:05;54.67;;;42.67;;
7879;SDS011;3985;49.366;2.738;2023-03-01T09:11:35;42.33;;;40.33;;
7879;SDS011;3985;49.366;2.738;2023-03-01T09:14:04;46.67;;;42.67;;
7879;SDS011;3985;49.366;2.738;2023-03-01T09:16:32;46.33;;;40.33;;
7879;SDS011;3985;49.366;2.738;2023-03-01T09:19:02;46.00;;;42.00;;
7879;SDS011;3985;49.366;2.738;2023-03-01T09:21:30;50.33;;;41.33;;
7879;SDS011;3985;49.366;2.738;2023-03-01T09:23:57;54.00;;;44.33;;
7879;SDS011;3985;49.366;2.738;2023-03-01T09:26:25;26.33;;;23.67;;
7879;SDS011;3985;49.366;2.738;2023-03-01T09:28:53;48.33;;;42.67;;
7879;SDS011;3985;49.366;2.738;2023-03-01T09:31:22;44.00;;;38.33;;
7879;SDS011;3985;49.366;2.738;2023-03-01T09:33:50;45.33;;;38.33;;
7879;SDS011;3985;49.366;2.738;2023-03-01T09:36:21;51.33;;;42.00;;
7879;SDS011;3985;49.366;2.738;2023-03-01T09:38:50;42.00;;;39.67;;
7879;SDS011;3985;49.366;2.738;2023-03-01T09:41:23;46.00;;;37.67;;
7879;SDS011;3985;49.366;2.738;2023-03-01T09:44:10;43.00;;;39.33;;
7879;SDS011;3985;49.366;2.738;2023-03-01T09:46:58;38.00;;;37.67;;
7879;SDS011;3985;49.366;2.738;2023-03-01T09:49:27;43.33;;;39.67;;
7879;SDS011;3985;49.366;2.738;2023-03-01T09:51:59;35.67;;;35.67;;
7879;SDS011;3985;49.366;2.738;2023-03-01T09:54:30;43.67;;;40.33;;
7879;SDS011;3985;49.366;2.738;2023-03-01T09:57:12;42.33;;;35.67;;
7879;SDS011;3985;49.366;2.738;2023-03-01T09:59:47;47.33;;;41.33;;
7879;SDS011;3985;49.366;2.738;2023-03-01T10:02:30;46.00;;;38.67;;
7879;SDS011;3985;49.366;2.738;2023-03-01T10:05:05;40.00;;;37.33;;
7879;SDS011;3985;49.366;2.738;2023-03-01T10:07:58;31.00;;;25.75;;
7879;SDS011;3985;49.366;2.738;2023-03-01T10:10:48;31.00;;;30.00;;
7879;SDS011;3985;49.366;2.738;2023-03-01T10:13:17;44.00;;;40.00;;
7879;SDS011;3985;49.366;2.738;2023-03-01T10:15:54;45.33;;;39.00;;
7879;SDS011;3985;49.366;2.738;2023-03-01T10:18:30;24.33;;;24.33;;
7879;SDS011;3985;49.366;2.738;2023-03-01T10:21:05;44.67;;;40.67;;
7879;SDS011;3985;49.366;2.738;2023-03-01T10:23:42;51.00;;;44.33;;
7879;SDS011;3985;49.366;2.738;2023-03-01T10:26:17;45.67;;;38.67;;
7879;SDS011;3985;49.366;2.738;2023-03-01T10:28:58;36.25;;;35.25;;
7879;SDS011;3985;49.366;2.738;2023-03-01T10:31:32;47.50;;;34.50;;
7879;SDS011;3985;49.366;2.738;2023-03-01T10:34:13;46.00;;;38.25;;
7879;SDS011;3985;49.366;2.738;2023-03-01T10:36:43;51.25;;;39.50;;
7879;SDS011;3985;49.366;2.738;2023-03-01T10:39:18;44.25;;;38.00;;
7879;SDS011;3985;49.366;2.738;2023-03-01T10:41:57;30.25;;;29.75;;
7879;SDS011;3985;49.366;2.738;2023-03-01T10:47:19;38.00;;;36.00;;
7879;SDS011;3985;49.366;2.738;2023-03-01T10:49:52;34.00;;;34.00;;
7879;SDS011;3985;49.366;2.738;2023-03-01T10:52:25;43.25;;;39.50;;
7879;SDS011;3985;49.366;2.738;2023-03-01T10:55:00;43.50;;;38.25;;
7879;SDS011;3985;49.366;2.738;2023-03-01T10:57:35;45.00;;;39.50;;
7879;SDS011;3985;49.366;2.738;2023-03-01T11:00:15;40.25;;;38.75;;
7879;SDS011;3985;49.366;2.738;2023-03-01T11:02:46;43.00;;;37.00;;
7879;SDS011;3985;49.366;2.738;2023-03-01T11:05:20;43.00;;;37.75;;
7879;SDS011;3985;49.366;2.738;2023-03-01T11:07:51;47.75;;;38.00;;
7879;SDS011;3985;49.366;2.738;2023-03-01T11:10:24;41.50;;;39.50;;
7879;SDS011;3985;49.366;2.738;2023-03-01T11:12:53;51.50;;;42.00;;
7879;SDS011;3985;49.366;2.738;2023-03-01T11:15:32;41.50;;;35.50;;
7879;SDS011;3985;49.366;2.738;2023-03-01T11:18:01;46.50;;;38.25;;
7879;SDS011;3985;49.366;2.738;2023-03-01T11:20:33;42.25;;;39.00;;
7879;SDS011;3985;49.366;2.738;2023-03-01T11:23:04;37.00;;;29.75;;
7879;SDS011;3985;49.366;2.738;2023-03-01T11:25:39;34.75;;;31.50;;
7879;SDS011;3985;49.366;2.738;2023-03-01T11:28:12;35.50;;;35.25;;
7879;SDS011;3985;49.366;2.738;2023-03-01T11:30:44;43.00;;;37.75;;
7879;SDS011;3985;49.366;2.738;2023-03-01T11:33:18;42.50;;;39.00;;
7879;SDS011;3985;49.366;2.738;2023-03-01T11:35:50;40.75;;;38.75;;
7879;SDS011;3985;49.366;2.738;2023-03-01T11:38:23;45.25;;;38.25;;
7879;SDS011;3985;49.366;2.738;2023-03-01T11:40:54;34.50;;;31.75;;
7879;SDS011;3985;49.366;2.738;2023-03-01T11:43:35;34.00;;;29.50;;
7879;SDS011;3985;49.366;2.738;2023-03-01T11:46:23;42.50;;;38.50;;
7879;SDS011;3985;49.366;2.738;2023-03-01T11:49:14;44.00;;;39.00;;
7879;SDS011;3985;49.366;2.738;2023-03-01T11:52:00;33.75;;;33.75;;
7879;SDS011;3985;49.366;2.738;2023-03-01T11:54:38;48.25;;;39.25;;
7879;SDS011;3985;49.366;2.738;2023-03-01T11:57:17;40.25;;;36.50;;
7879;SDS011;3985;49.366;2.738;2023-03-01T12:02:49;41.25;;;37.75;;
7879;SDS011;3985;49.366;2.738;2023-03-01T12:05:41;33.00;;;33.00;;
7879;SDS011;3985;49.366;2.738;2023-03-01T12:08:24;42.25;;;39.00;;
7879;SDS011;3985;49.366;2.738;2023-03-01T12:11:01;43.00;;;37.00;;
7879;SDS011;3985;49.366;2.738;2023-03-01T12:13:42;31.25;;;31.25;;
7879;SDS011;3985;49.366;2.738;2023-03-01T12:16:35;45.75;;;38.25;;
7879;SDS011;3985;49.366;2.738;2023-03-01T12:19:37;49.75;;;42.00;;
7879;SDS011;3985;49.366;2.738;2023-03-01T12:22:26;46.25;;;37.50;;
7879;SDS011;3985;49.366;2.738;2023-03-01T12:28:01;45.50;;;37.50;;
7879;SDS011;3985;49.366;2.738;2023-03-01T12:30:55;41.50;;;37.50;;
7879;SDS011;3985;49.366;2.738;2023-03-01T12:33:51;33.75;;;33.00;;
7879;SDS011;3985;49.366;2.738;2023-03-01T12:36:32;47.25;;;40.25;;
7879;SDS011;3985;49.366;2.738;2023-03-01T12:39:11;49.25;;;40.75;;
7879;SDS011;3985;49.366;2.738;2023-03-01T12:41:51;53.25;;;43.00;;
7879;SDS011;3985;49.366;2.738;2023-03-01T12:44:30;44.75;;;38.75;;
7879;SDS011;3985;49.366;2.738;2023-03-01T12:47:22;37.75;;;35.00;;
7879;SDS011;3985;49.366;2.738;2023-03-01T12:49:59;36.50;;;33.50;;
7879;SDS011;3985;49.366;2.738;2023-03-01T12:52:32;35.00;;;32.75;;
7879;SDS011;3985;49.366;2.738;2023-03-01T12:55:05;43.25;;;37.00;;
7879;SDS011;3985;49.366;2.738;2023-03-01T12:57:43;48.00;;;38.00;;
7879;SDS011;3985;49.366;2.738;2023-03-01T13:00:18;32.75;;;31.00;;
7879;SDS011;3985;49.366;2.738;2023-03-01T13:02:56;36.50;;;35.00;;
7879;SDS011;3985;49.366;2.738;2023-03-01T13:05:30;32.00;;;30.75;;
7879;SDS011;3985;49.366;2.738;2023-03-01T13:08:05;35.25;;;34.00;;
7879;SDS011;3985;49.366;2.738;2023-03-01T13:10:40;42.00;;;35.25;;
7879;SDS011;3985;49.366;2.738;2023-03-01T13:13:14;42.00;;;36.75;;
7879;SDS011;3985;49.366;2.738;2023-03-01T13:15:54;42.50;;;37.00;;
7879;SDS011;3985;49.366;2.738;2023-03-01T13:18:33;49.25;;;40.50;;
7879;SDS011;3985;49.366;2.738;2023-03-01T13:21:01;42.75;;;37.50;;
7879;SDS011;3985;49.366;2.738;2023-03-01T13:23:31;39.75;;;34.00;;
7879;SDS011;3985;49.366;2.738;2023-03-01T13:26:03;37.25;;;34.00;;
7879;SDS011;3985;49.366;2.738;2023-03-01T13:28:48;39.50;;;36.25;;
7879;SDS011;3985;49.366;2.738;2023-03-01T13:37:29;47.00;;;37.75;;
7879;SDS011;3985;49.366;2.738;2023-03-01T13:40:00;40.25;;;35.00;;
7879;SDS011;3985;49.366;2.738;2023-03-01T13:42:34;29.75;;;27.75;;
7879;SDS011;3985;49.366;2.738;2023-03-01T13:45:15;43.25;;;37.75;;
7879;SDS011;3985;49.366;2.738;2023-03-01T13:47:50;34.25;;;31.50;;
7879;SDS011;3985;49.366;2.738;2023-03-01T13:50:29;37.25;;;34.00;;
7879;SDS011;3985;49.366;2.738;2023-03-01T13:53:00;42.50;;;35.00;;
7879;SDS011;3985;49.366;2.738;2023-03-01T13:55:32;40.00;;;34.50;;
7879;SDS011;3985;49.366;2.738;2023-03-01T13:58:04;36.25;;;34.00;;
7879;SDS011;3985;49.366;2.738;2023-03-01T14:00:40;34.00;;;33.50;;
7879;SDS011;3985;49.366;2.738;2023-03-01T14:03:11;44.75;;;39.50;;
7879;SDS011;3985;49.366;2.738;2023-03-01T14:05:42;45.00;;;35.00;;
7879;SDS011;3985;49.366;2.738;2023-03-01T14:08:19;28.00;;;28.00;;
7879;SDS011;3985;49.366;2.738;2023-03-01T14:10:53;35.75;;;34.75;;
7879;SDS011;3985;49.366;2.738;2023-03-01T14:13:43;31.75;;;29.25;;
7879;SDS011;3985;49.366;2.738;2023-03-01T14:16:22;37.25;;;33.50;;
7879;SDS011;3985;49.366;2.738;2023-03-01T14:18:57;35.00;;;34.00;;
7879;SDS011;3985;49.366;2.738;2023-03-01T14:21:34;29.25;;;27.25;;
7879;SDS011;3985;49.366;2.738;2023-03-01T14:24:02;26.00;;;26.00;;
7879;SDS011;3985;49.366;2.738;2023-03-01T14:26:30;39.50;;;36.00;;
7879;SDS011;3985;49.366;2.738;2023-03-01T14:28:59;34.50;;;32.75;;
7879;SDS011;3985;49.366;2.738;2023-03-01T14:31:35;34.75;;;33.50;;
7879;SDS011;3985;49.366;2.738;2023-03-01T14:34:04;33.75;;;31.25;;
7879;SDS011;3985;49.366;2.738;2023-03-01T14:36:33;30.00;;;29.75;;
7879;SDS011;3985;49.366;2.738;2023-03-01T14:39:02;37.50;;;31.00;;
7879;SDS011;3985;49.366;2.738;2023-03-01T14:41:43;32.25;;;32.00;;
7879;SDS011;3985;49.366;2.738;2023-03-01T14:44:14;36.75;;;34.00;;
7879;SDS011;3985;49.366;2.738;2023-03-01T14:46:46;33.00;;;31.25;;
7879;SDS011;3985;49.366;2.738;2023-03-01T14:49:19;34.00;;;32.00;;
7879;SDS011;3985;49.366;2.738;2023-03-01T14:51:51;31.25;;;29.75;;
7879;SDS011;3985;49.366;2.738;2023-03-01T14:54:22;29.75;;;26.50;;
7879;SDS011;3985;49.366;2.738;2023-03-01T14:56:52;39.50;;;35.25;;
7879;SDS011;3985;49.366;2.738;2023-03-01T14:59:21;33.25;;;30.75;;
7879;SDS011;3985;49.366;2.738;2023-03-01T15:01:53;42.75;;;37.50;;
7879;SDS011;3985;49.366;2.738;2023-03-01T15:04:23;44.25;;;38.75;;
7879;SDS011;3985;49.366;2.738;2023-03-01T15:06:54;37.00;;;33.75;;
7879;SDS011;3985;49.366;2.738;2023-03-01T15:09:30;49.75;;;40.75;;
7879;SDS011;3985;49.366;2.738;2023-03-01T15:15:22;39.00;;;34.00;;
7879;SDS011;3985;49.366;2.738;2023-03-01T15:17:58;40.75;;;36.00;;
7879;SDS011;3985;49.366;2.738;2023-03-01T15:20:28;36.75;;;35.00;;
7879;SDS011;3985;49.366;2.738;2023-03-01T15:23:01;38.75;;;35.00;;
7879;SDS011;3985;49.366;2.738;2023-03-01T15:25:32;31.75;;;30.50;;
7879;SDS011;3985;49.366;2.738;2023-03-01T15:28:03;39.50;;;34.25;;
7879;SDS011;3985;49.366;2.738;2023-03-01T15:30:32;36.00;;;33.00;;
7879;SDS011;3985;49.366;2.738;2023-03-01T15:35:59;28.25;;;27.75;;